Time;durP1;ratioP1;P1;durP2;ratioP2;P2;SDS_P1;SDS_P2;PMS_P1;PMS_P2;Temp;Humidity;BMP_temperature;BMP_pressure;BME280_temperature;BME280_humidity;BME280_pressure;Samples;Min_cycle;Max_cycle;Signal;HPM_P1;HPM_P2
2024/01/03 00:01:39;;;;;;;11.07;2.00;;;7.70;99.90;;;;;;6301272;22;20183;-78
2024/01/03 00:04:07;;;;;;;11.90;1.98;;;8.00;99.90;;;;;;6299353;22;20026;-79
2024/01/03 00:06:33;;;;;;;13.93;2.10;;;7.70;99.90;;;;;;6301730;22;20046;-78
2024/01/03 00:09:00;;;;;;;15.00;2.08;;;7.70;99.90;;;;;;6303785;22;20022;-77
2024/01/03 00:11:30;;;;;;;14.23;1.92;;;9.20;99.90;;;;;;6299354;22;20102;-79
2024/01/03 00:13:59;;;;;;;12.32;1.95;;;9.30;99.90;;;;;;6304138;22;20050;-78
2024/01/03 00:16:26;;;;;;;8.23;1.77;;;7.80;99.90;;;;;;6301250;22;20051;-79
2024/01/03 00:18:54;;;;;;;12.77;1.73;;;9.20;99.90;;;;;;6301433;22;20008;-79
2024/01/03 00:21:25;;;;;;;9.57;1.55;;;8.00;99.90;;;;;;6300918;22;20022;-79
2024/01/03 00:23:56;;;;;;;9.65;1.88;;;8.90;99.90;;;;;;6301470;22;20336;-79
2024/01/03 00:26:23;;;;;;;12.60;1.92;;;8.30;99.90;;;;;;6300861;22;20022;-80
2024/01/03 00:28:49;;;;;;;9.43;1.88;;;8.00;99.90;;;;;;6275763;22;20060;-80
2024/01/03 00:31:37;;;;;;;11.75;2.00;;;8.80;99.90;;;;;;6302936;22;20020;-79
2024/01/03 00:34:06;;;;;;;9.90;1.85;;;8.00;99.90;;;;;;6301599;22;20435;-79
2024/01/03 00:36:32;;;;;;;8.05;1.77;;;8.00;99.90;;;;;;6301197;22;20015;-78
2024/01/03 00:38:58;;;;;;;;;;;8.90;99.90;;;;;;6302061;22;20008;-78
2024/01/03 00:41:23;;;;;;;13.32;2.08;;;8.10;99.90;;;;;;6300777;22;19911;-78
2024/01/03 00:43:49;;;;;;;9.97;1.67;;;8.00;99.90;;;;;;6302815;22;20115;-77
2024/01/03 00:46:15;;;;;;;11.40;1.70;;;8.60;99.90;;;;;;6303823;22;20731;-78
2024/01/03 00:48:40;;;;;;;13.32;1.90;;;8.20;99.90;;;;;;6301297;22;20041;-78
2024/01/03 00:51:07;;;;;;;11.18;1.80;;;8.00;99.90;;;;;;6300629;22;20027;-78
2024/01/03 00:53:32;;;;;;;10.02;1.85;;;8.90;99.90;;;;;;6303051;22;20019;-78
2024/01/03 00:55:59;;;;;;;14.73;2.55;;;8.50;99.90;;;;;;6300862;22;20007;-78
2024/01/03 00:58:24;;;;;;;9.50;1.85;;;8.70;99.90;;;;;;6300997;22;20021;-78
2024/01/03 01:00:50;;;;;;;11.85;1.88;;;7.50;99.90;;;;;;6301244;22;20113;-78
2024/01/03 01:03:17;;;;;;;10.85;1.92;;;7.70;99.90;;;;;;6303417;22;20078;-78
2024/01/03 01:05:43;;;;;;;12.15;1.75;;;7.70;99.90;;;;;;6301482;22;20030;-77
2024/01/03 01:08:08;;;;;;;11.77;1.95;;;9.00;99.90;;;;;;6301555;22;20440;-78
2024/01/03 01:10:34;;;;;;;14.13;2.08;;;7.70;99.90;;;;;;6300494;22;20094;-77
2024/01/03 01:13:00;;;;;;;11.18;1.90;;;9.10;99.90;;;;;;6302757;22;20019;-77
2024/01/03 01:15:25;;;;;;;10.82;1.92;;;8.60;99.90;;;;;;6302836;22;20453;-79
2024/01/03 01:17:51;;;;;;;11.93;1.83;;;9.10;99.90;;;;;;6301086;22;20015;-78
2024/01/03 01:20:17;;;;;;;9.88;2.05;;;8.90;99.90;;;;;;6300928;22;20011;-78
2024/01/03 01:22:42;;;;;;;12.27;2.33;;;9.10;99.90;;;;;;6301151;22;20157;-77
2024/01/03 01:25:08;;;;;;;12.88;2.40;;;8.90;99.90;;;;;;6300754;22;20035;-77
2024/01/03 01:27:34;;;;;;;12.13;2.10;;;7.70;99.90;;;;;;6300777;22;20015;-78
2024/01/03 01:29:59;;;;;;;9.40;1.75;;;8.30;99.90;;;;;;6301519;22;20015;-78
2024/01/03 01:32:25;;;;;;;19.60;2.43;;;7.50;99.90;;;;;;6301164;22;20345;-78
2024/01/03 01:34:50;;;;;;;11.98;2.38;;;9.20;99.90;;;;;;6301329;22;20244;-78
2024/01/03 01:37:16;;;;;;;10.85;2.30;;;7.60;99.90;;;;;;6301194;22;20318;-78
2024/01/03 01:39:44;;;;;;;9.93;2.50;;;9.40;99.90;;;;;;6301467;22;20011;-78
2024/01/03 01:42:10;;;;;;;14.13;2.00;;;7.60;99.90;;;;;;6300096;22;20584;-77
2024/01/03 01:44:35;;;;;;;11.43;2.42;;;7.40;99.90;;;;;;6300637;22;20018;-77
2024/01/03 01:47:02;;;;;;;16.50;2.35;;;7.50;99.90;;;;;;6301026;22;20015;-78
2024/01/03 01:49:28;;;;;;;12.27;1.70;;;7.90;99.90;;;;;;6300760;22;20023;-78
2024/01/03 01:51:53;;;;;;;12.25;1.95;;;9.60;99.90;;;;;;6300605;22;20015;-78
2024/01/03 01:54:20;;;;;;;19.58;2.72;;;9.80;99.90;;;;;;6302790;22;20073;-77
2024/01/03 01:56:47;;;;;;;14.32;2.38;;;7.00;99.90;;;;;;6301935;22;20019;-77
2024/01/03 01:59:13;;;;;;;17.80;2.63;;;7.00;99.90;;;;;;6300859;22;20060;-77
2024/01/03 02:01:39;;;;;;;17.17;2.38;;;8.90;99.90;;;;;;6300797;22;20016;-76
2024/01/03 02:04:07;;;;;;;19.40;2.80;;;8.30;99.90;;;;;;6301022;22;20074;-76
2024/01/03 02:06:34;;;;;;;11.85;2.13;;;8.60;99.90;;;;;;6300911;22;20341;-77
2024/01/03 02:08:59;;;;;;;15.88;1.85;;;8.60;99.90;;;;;;6302563;22;20080;-77
2024/01/03 02:11:25;;;;;;;17.02;2.65;;;9.40;99.90;;;;;;6299068;22;20725;-76
2024/01/03 02:13:51;;;;;;;13.35;2.53;;;6.90;99.90;;;;;;6300834;22;20047;-76
2024/01/03 02:16:17;;;;;;;20.33;2.65;;;7.00;99.90;;;;;;6274836;22;20436;-77
2024/01/03 02:18:43;;;;;;;15.30;2.42;;;9.50;99.90;;;;;;6302466;22;20014;-76
2024/01/03 02:21:16;;;;;;;22.27;3.70;;;7.40;99.90;;;;;;6300647;22;20054;-76
2024/01/03 02:23:43;;;;;;;18.83;3.00;;;8.80;99.90;;;;;;6274500;22;20007;-77
2024/01/03 02:26:09;;;;;;;14.73;2.33;;;6.70;99.90;;;;;;6301163;22;20080;-77
2024/01/03 02:28:35;;;;;;;11.00;2.03;;;7.70;99.90;;;;;;6274351;22;20015;-78
2024/01/03 02:31:01;;;;;;;;;;;9.50;99.90;;;;;;6300820;22;20047;-77
2024/01/03 02:33:26;;;;;;;13.15;1.88;;;9.20;99.90;;;;;;6300497;22;19922;-77
2024/01/03 02:35:52;;;;;;;17.77;2.38;;;9.30;99.90;;;;;;6302327;22;20015;-77
2024/01/03 02:38:18;;;;;;;11.63;1.98;;;6.80;99.90;;;;;;6300373;22;20521;-78
2024/01/03 02:40:44;;;;;;;13.77;2.40;;;9.30;99.90;;;;;;6301321;22;20018;-77
2024/01/03 02:43:10;;;;;;;14.45;2.03;;;7.20;99.90;;;;;;6300122;22;20082;-77
2024/01/03 02:45:37;;;;;;;15.75;2.47;;;7.80;99.90;;;;;;6302439;22;20015;-77
2024/01/03 02:48:02;;;;;;;13.48;2.33;;;7.10;99.90;;;;;;6301906;22;20022;-77
2024/01/03 02:50:28;;;;;;;19.05;2.60;;;8.30;99.90;;;;;;6301991;22;20011;-78
2024/01/03 02:52:54;;;;;;;8.77;1.63;;;9.60;99.90;;;;;;6301761;22;20054;-77
2024/01/03 02:55:22;;;;;;;11.70;2.50;;;9.60;99.90;;;;;;6301155;22;20011;-77
2024/01/03 02:57:47;;;;;;;9.45;1.77;;;6.70;99.90;;;;;;6301842;22;20034;-77
2024/01/03 03:00:14;;;;;;;14.77;2.45;;;9.60;99.90;;;;;;6299553;22;20444;-77
2024/01/03 03:02:40;;;;;;;14.93;2.25;;;9.30;99.90;;;;;;6299552;22;20341;-77
2024/01/03 03:05:06;;;;;;;12.50;1.88;;;8.30;99.90;;;;;;6299347;22;20683;-77
2024/01/03 03:07:31;;;;;;;11.73;2.05;;;9.10;99.90;;;;;;6300013;22;20051;-77
2024/01/03 03:09:57;;;;;;;13.07;2.40;;;7.00;99.90;;;;;;6299092;22;20015;-77
2024/01/03 03:12:22;;;;;;;8.68;2.05;;;7.80;99.90;;;;;;6299338;22;20539;-77
2024/01/03 03:14:49;;;;;;;18.67;2.80;;;9.10;99.90;;;;;;6300218;22;20082;-77
2024/01/03 03:17:15;;;;;;;12.10;2.10;;;8.30;99.90;;;;;;6300189;22;20447;-77
2024/01/03 03:19:40;;;;;;;11.57;2.13;;;7.70;99.90;;;;;;6299927;22;20015;-77
2024/01/03 03:22:06;;;;;;;11.05;1.75;;;9.80;99.90;;;;;;6300228;22;20030;-77
2024/01/03 03:24:32;;;;;;;11.70;2.20;;;9.50;99.90;;;;;;6299893;22;20021;-77
2024/01/03 03:26:57;;;;;;;10.00;1.92;;;7.30;99.90;;;;;;6301415;22;20573;-77
2024/01/03 03:29:23;;;;;;;9.13;1.75;;;9.40;99.90;;;;;;6301691;22;20008;-77
2024/01/03 03:31:49;;;;;;;6.97;1.67;;;9.00;99.90;;;;;;6299890;22;20022;-77
2024/01/03 03:34:18;;;;;;;8.68;1.85;;;7.80;99.90;;;;;;6302455;22;20011;-77
2024/01/03 03:36:44;;;;;;;9.65;1.80;;;8.10;99.90;;;;;;6302218;22;20361;-77
2024/01/03 03:39:10;;;;;;;13.45;2.15;;;7.20;99.90;;;;;;6299554;22;20015;-77
2024/01/03 03:41:37;;;;;;;15.27;2.25;;;9.30;99.90;;;;;;6301618;22;20026;-78
2024/01/03 03:44:06;;;;;;;13.82;2.35;;;9.20;99.90;;;;;;6304144;22;20018;-77
2024/01/03 03:46:31;;;;;;;12.35;2.17;;;7.50;99.90;;;;;;6302144;22;20019;-77
2024/01/03 03:48:59;;;;;;;13.30;1.85;;;8.60;99.90;;;;;;6301691;22;20345;-76
2024/01/03 03:51:25;;;;;;;8.20;1.77;;;9.30;99.90;;;;;;6303641;22;20489;-77
2024/01/03 03:53:51;;;;;;;12.02;1.70;;;7.40;99.90;;;;;;6303498;22;20405;-77
2024/01/03 03:56:24;;;;;;;8.95;1.42;;;9.40;99.90;;;;;;6301378;22;20358;-78
2024/01/03 03:58:49;;;;;;;11.40;1.70;;;7.60;99.90;;;;;;6301627;22;20377;-77
2024/01/03 04:01:15;;;;;;;12.30;1.98;;;9.50;99.90;;;;;;6301824;22;20090;-77
2024/01/03 04:03:41;;;;;;;11.85;2.10;;;7.40;99.90;;;;;;6276819;22;20435;-77
2024/01/03 04:06:07;;;;;;;14.57;2.45;;;9.00;99.90;;;;;;6301593;22;20019;-77
2024/01/03 04:08:32;;;;;;;8.98;1.75;;;7.90;99.90;;;;;;6303373;22;20015;-77
2024/01/03 04:10:58;;;;;;;10.63;1.92;;;9.00;99.90;;;;;;6301837;22;20011;-78
2024/01/03 04:13:23;;;;;;;11.85;1.80;;;9.30;99.90;;;;;;6301116;22;20049;-77
2024/01/03 04:15:49;;;;;;;13.63;2.28;;;8.40;99.90;;;;;;6301525;22;20018;-77
2024/01/03 04:18:15;;;;;;;7.57;1.33;;;8.40;99.90;;;;;;6301124;22;20489;-76
2024/01/03 04:20:40;;;;;;;9.82;1.48;;;8.40;99.90;;;;;;6303320;22;20010;-77
2024/01/03 04:23:06;;;;;;;11.48;2.03;;;8.20;99.90;;;;;;6303631;22;20019;-77
2024/01/03 04:25:31;;;;;;;8.35;1.73;;;8.80;99.90;;;;;;6300692;22;20463;-77
2024/01/03 04:27:57;;;;;;;11.18;1.77;;;8.30;99.90;;;;;;6301039;22;20023;-77
2024/01/03 04:30:23;;;;;;;7.72;1.80;;;8.40;99.90;;;;;;6303610;22;20034;-77
2024/01/03 04:32:48;;;;;;;6.63;1.25;;;8.40;99.90;;;;;;6303427;22;20023;-77
2024/01/03 04:35:14;;;;;;;9.85;2.22;;;8.40;99.90;;;;;;6301625;22;20371;-77
2024/01/03 04:37:39;;;;;;;7.75;1.40;;;8.40;99.90;;;;;;6301173;22;20433;-77
2024/01/03 04:40:06;;;;;;;9.20;1.90;;;8.70;99.90;;;;;;6301304;22;20015;-77
2024/01/03 04:42:31;;;;;;;8.63;1.60;;;8.90;99.90;;;;;;6303295;22;20437;-77
2024/01/03 04:44:57;;;;;;;6.45;1.30;;;8.60;99.90;;;;;;6301705;22;20026;-77
2024/01/03 04:47:23;;;;;;;7.65;1.33;;;8.60;99.90;;;;;;6301748;22;20015;-77
2024/01/03 04:49:48;;;;;;;8.60;1.10;;;9.00;99.90;;;;;;6303180;22;20055;-77
2024/01/03 04:52:14;;;;;;;8.18;1.48;;;8.90;99.90;;;;;;6301952;22;20499;-77
2024/01/03 04:54:40;;;;;;;6.53;1.35;;;8.50;99.90;;;;;;6301560;22;20339;-76
2024/01/03 04:57:05;;;;;;;5.05;1.05;;;8.80;99.90;;;;;;6300756;22;20015;-77
2024/01/03 04:59:31;;;;;;;9.02;1.40;;;8.60;99.90;;;;;;6302851;22;20026;-77
2024/01/03 05:01:56;;;;;;;7.47;1.70;;;8.70;99.90;;;;;;6302339;22;20098;-77
2024/01/03 05:04:22;;;;;;;11.13;1.70;;;9.00;99.90;;;;;;6300250;22;20011;-76
2024/01/03 05:06:50;;;;;;;8.75;1.73;;;9.00;99.90;;;;;;6298149;22;20072;-76
2024/01/03 05:09:16;;;;;;;9.82;1.73;;;8.70;99.90;;;;;;6301095;22;20011;-76
2024/01/03 05:11:42;;;;;;;11.65;2.13;;;8.80;99.90;;;;;;6300604;22;20029;-76
2024/01/03 05:14:07;;;;;;;8.45;1.67;;;8.80;99.90;;;;;;6275647;22;20011;-77
2024/01/03 05:16:33;;;;;;;12.18;1.70;;;9.10;99.90;;;;;;6303138;22;20083;-77
2024/01/03 05:18:59;;;;;;;10.85;2.10;;;8.80;99.90;;;;;;6302780;22;20019;-77
2024/01/03 05:21:24;;;;;;;8.50;1.80;;;8.90;99.90;;;;;;6301136;22;20011;-77
2024/01/03 05:23:50;;;;;;;7.45;2.83;;;9.00;99.90;;;;;;6301123;22;20011;-77
2024/01/03 05:26:15;;;;;;;9.55;2.15;;;9.10;99.90;;;;;;6300562;22;20113;-77
2024/01/03 05:28:41;;;;;;;6.18;1.30;;;9.20;99.90;;;;;;6303044;22;20015;-77
2024/01/03 05:31:10;;;;;;;9.70;1.58;;;8.90;99.90;;;;;;6275151;22;20482;-77
2024/01/03 05:33:35;;;;;;;7.45;1.60;;;8.80;99.90;;;;;;6298940;22;20019;-77
2024/01/03 05:36:04;;;;;;;7.43;1.48;;;8.90;99.90;;;;;;6301090;22;20117;-77
2024/01/03 05:38:29;;;;;;;7.70;1.52;;;8.70;99.90;;;;;;6300001;22;20012;-77
2024/01/03 05:40:55;;;;;;;5.63;1.30;;;8.90;99.90;;;;;;6301020;22;20019;-76
2024/01/03 05:43:21;;;;;;;6.25;1.20;;;8.90;99.90;;;;;;6302946;22;20436;-76
2024/01/03 05:45:47;;;;;;;7.70;1.30;;;9.20;99.90;;;;;;6302458;22;20515;-77
2024/01/03 05:48:12;;;;;;;4.05;1.20;;;9.10;99.90;;;;;;6302236;22;20065;-77
2024/01/03 05:50:38;;;;;;;4.15;1.15;;;9.20;99.90;;;;;;6275210;22;20016;-76
2024/01/03 05:53:03;;;;;;;4.93;1.15;;;8.20;99.90;;;;;;6299703;22;20086;-76
2024/01/03 05:55:29;;;;;;;9.18;1.60;;;9.20;99.90;;;;;;6299447;22;20499;-76
2024/01/03 05:57:54;;;;;;;9.05;1.52;;;9.30;99.90;;;;;;6301542;22;20015;-77
2024/01/03 06:00:21;;;;;;;9.77;2.10;;;7.90;99.90;;;;;;6301016;22;20561;-76
2024/01/03 06:02:46;;;;;;;16.67;3.00;;;9.30;99.90;;;;;;6300272;22;20079;-77
2024/01/03 06:05:16;;;;;;;21.05;3.35;;;8.70;99.90;;;;;;6301187;22;20023;-79
2024/01/03 06:07:44;;;;;;;15.75;2.85;;;8.30;99.90;;;;;;6301284;22;20278;-79
2024/01/03 06:10:09;;;;;;;24.73;4.03;;;8.30;99.90;;;;;;6300560;22;20090;-78
2024/01/03 06:12:35;;;;;;;22.88;3.85;;;8.40;99.90;;;;;;6300812;22;20039;-79
2024/01/03 06:15:01;;;;;;;15.43;2.78;;;9.10;99.90;;;;;;6302990;22;20529;-78
2024/01/03 06:17:27;;;;;;;21.95;3.72;;;9.20;99.90;;;;;;6302209;22;20026;-79
2024/01/03 06:19:52;;;;;;;28.30;3.90;;;8.80;99.90;;;;;;6300487;22;20016;-78
2024/01/03 06:22:18;;;;;;;18.33;3.40;;;9.20;99.90;;;;;;6300434;22;20015;-78
2024/01/03 06:24:44;;;;;;;19.33;4.25;;;8.80;99.90;;;;;;6300242;22;20068;-78
2024/01/03 06:27:09;;;;;;;16.58;2.80;;;9.20;99.90;;;;;;6299744;22;20023;-79
2024/01/03 06:29:35;;;;;;;18.05;3.10;;;9.10;99.90;;;;;;6300043;22;20098;-79
2024/01/03 06:32:00;;;;;;;20.35;2.65;;;9.30;99.90;;;;;;6300591;22;20317;-78
2024/01/03 06:34:26;;;;;;;22.55;3.75;;;9.00;99.90;;;;;;6300054;22;20513;-79
2024/01/03 06:36:52;;;;;;;20.05;2.88;;;9.20;99.90;;;;;;6301873;22;20026;-78
2024/01/03 06:39:17;;;;;;;17.08;3.03;;;9.20;99.90;;;;;;6300265;22;20093;-78
2024/01/03 06:41:43;;;;;;;18.67;2.83;;;9.30;99.90;;;;;;6299786;22;20019;-78
2024/01/03 06:44:09;;;;;;;18.88;3.15;;;9.30;99.90;;;;;;6300103;22;20068;-79
2024/01/03 06:46:34;;;;;;;19.85;2.88;;;9.10;99.90;;;;;;6301375;22;20411;-80
2024/01/03 06:49:00;;;;;;;14.68;2.85;;;9.10;99.90;;;;;;6300110;22;20539;-79
2024/01/03 06:51:26;;;;;;;19.67;3.38;;;9.40;99.90;;;;;;6301274;22;20019;-79
2024/01/03 06:53:51;;;;;;;19.65;3.22;;;9.30;99.90;;;;;;6300051;22;20500;-79
2024/01/03 06:56:21;;;;;;;15.50;2.58;;;9.20;99.90;;;;;;6298918;22;20023;-78
2024/01/03 06:58:48;;;;;;;22.20;3.30;;;9.20;99.90;;;;;;6300127;22;20019;-80
2024/01/03 07:01:14;;;;;;;16.90;3.28;;;9.30;99.90;;;;;;6298830;22;20019;-79
2024/01/03 07:03:39;;;;;;;17.45;2.92;;;9.40;99.90;;;;;;6272765;22;20403;-79
2024/01/03 07:06:05;;;;;;;13.95;2.97;;;9.40;99.90;;;;;;6297957;22;20026;-79
2024/01/03 07:08:31;;;;;;;20.02;3.33;;;9.50;99.90;;;;;;6296567;22;20037;-79
2024/01/03 07:10:56;;;;;;;17.92;3.10;;;9.20;99.90;;;;;;6298062;22;20395;-78
2024/01/03 07:13:22;;;;;;;15.73;3.63;;;9.10;99.90;;;;;;6296147;22;20020;-78
2024/01/03 07:15:47;;;;;;;21.48;3.70;;;9.10;99.90;;;;;;6300797;22;20011;-78
2024/01/03 07:18:13;;;;;;;18.60;3.35;;;9.00;99.90;;;;;;6301968;22;20011;-79
2024/01/03 07:20:39;;;;;;;19.10;3.08;;;9.00;99.90;;;;;;6302171;22;20096;-78
2024/01/03 07:23:04;;;;;;;15.82;3.00;;;9.00;99.90;;;;;;6301376;22;20039;-79
2024/01/03 07:25:30;;;;;;;19.95;3.55;;;8.90;99.90;;;;;;6298132;22;20011;-79
2024/01/03 07:27:55;;;;;;;18.00;2.80;;;9.30;99.90;;;;;;6299059;22;20435;-79
2024/01/03 07:30:25;;;;;;;17.98;2.90;;;8.90;99.90;;;;;;6295913;22;20015;-79
2024/01/03 07:32:52;;;;;;;15.13;2.42;;;9.30;99.90;;;;;;6299478;22;20092;-79
2024/01/03 07:35:18;;;;;;;16.48;2.85;;;9.10;99.90;;;;;;6299184;22;20109;-79
2024/01/03 07:37:44;;;;;;;14.98;2.55;;;9.10;99.90;;;;;;6298144;22;20051;-78
2024/01/03 07:40:09;;;;;;;13.52;2.75;;;9.20;99.90;;;;;;6266995;22;20007;-79
2024/01/03 07:42:35;;;;;;;17.10;3.13;;;8.80;99.90;;;;;;6297587;22;20019;-78
2024/01/03 07:45:01;;;;;;;16.42;3.08;;;9.10;99.90;;;;;;6299847;22;20017;-78
2024/01/03 07:47:27;;;;;;;15.70;2.90;;;8.70;99.90;;;;;;6301080;22;20023;-77
2024/01/03 07:49:53;;;;;;;15.52;2.63;;;8.80;99.90;;;;;;6299047;22;20030;-78
2024/01/03 07:52:20;;;;;;;16.33;3.35;;;8.90;99.90;;;;;;6297870;22;20431;-78
2024/01/03 07:54:47;;;;;;;13.60;3.17;;;9.00;99.90;;;;;;6300410;22;20019;-79
2024/01/03 07:57:13;;;;;;;16.85;3.33;;;9.00;99.90;;;;;;6298739;22;20007;-79
2024/01/03 07:59:42;;;;;;;9.55;2.10;;;9.20;99.90;;;;;;6299103;22;20167;-79
2024/01/03 08:02:08;;;;;;;20.15;2.78;;;9.10;99.90;;;;;;6277147;22;20015;-77
2024/01/03 08:04:34;;;;;;;19.65;3.50;;;8.80;99.90;;;;;;6301788;22;20022;-79
2024/01/03 08:06:59;;;;;;;21.35;2.78;;;9.10;99.90;;;;;;6299138;22;20026;-79
2024/01/03 08:09:28;;;;;;;18.13;3.28;;;8.90;99.90;;;;;;6300005;22;20011;-79
2024/01/03 08:11:54;;;;;;;20.02;2.78;;;9.10;99.90;;;;;;6297697;22;20015;-80
2024/01/03 08:14:19;;;;;;;13.35;2.38;;;9.10;99.90;;;;;;6298666;22;20017;-79
2024/01/03 08:16:45;;;;;;;19.23;2.85;;;9.10;99.90;;;;;;6301065;22;20428;-79
2024/01/03 08:19:11;;;;;;;17.50;2.95;;;8.80;99.90;;;;;;6300302;22;20082;-79
2024/01/03 08:21:37;;;;;;;18.20;2.95;;;8.90;99.90;;;;;;6274261;22;20401;-79
2024/01/03 08:24:03;;;;;;;13.95;2.30;;;8.80;99.90;;;;;;6300147;22;20015;-78
2024/01/03 08:26:28;;;;;;;12.52;2.22;;;9.00;99.90;;;;;;6302292;22;20019;-77
2024/01/03 08:28:54;;;;;;;20.13;3.13;;;9.10;99.90;;;;;;6302147;22;20039;-78
2024/01/03 08:31:19;;;;;;;13.00;3.08;;;8.80;99.90;;;;;;6301834;22;20404;-78
2024/01/03 08:33:48;;;;;;;19.10;2.70;;;9.10;99.90;;;;;;6301675;22;20173;-78
2024/01/03 08:36:14;;;;;;;14.25;2.45;;;8.90;99.90;;;;;;6300431;22;20011;-78
2024/01/03 08:38:41;;;;;;;15.88;2.90;;;8.90;99.90;;;;;;6301191;22;20018;-79
2024/01/03 08:41:17;;;;;;;13.65;2.63;;;8.80;99.90;;;;;;6303296;22;20015;-79
2024/01/03 08:43:44;;;;;;;10.95;2.05;;;9.20;99.90;;;;;;6303064;22;20011;-79
2024/01/03 08:46:10;;;;;;;16.55;2.70;;;8.70;99.90;;;;;;6296954;22;20519;-79
2024/01/03 08:48:39;;;;;;;12.50;2.40;;;9.00;99.90;;;;;;6300883;22;20061;-78
2024/01/03 08:51:10;;;;;;;10.73;2.08;;;9.00;99.90;;;;;;6300882;22;20026;-78
2024/01/03 08:53:35;;;;;;;13.90;2.33;;;8.60;99.90;;;;;;6301013;22;20022;-79
2024/01/03 08:56:04;;;;;;;13.27;2.20;;;8.60;99.90;;;;;;6300392;22;20015;-78
2024/01/03 08:58:30;;;;;;;14.57;1.95;;;9.10;99.90;;;;;;6301401;22;20476;-79
2024/01/03 09:00:56;;;;;;;18.55;2.67;;;8.90;99.90;;;;;;6299301;22;20047;-79
2024/01/03 09:03:22;;;;;;;15.57;2.60;;;8.60;99.90;;;;;;6301468;22;20293;-79
2024/01/03 09:05:47;;;;;;;13.48;2.20;;;9.00;99.90;;;;;;6301528;22;20432;-79
2024/01/03 09:08:16;;;;;;;13.15;2.25;;;9.00;99.90;;;;;;6295818;22;20019;-79
2024/01/03 09:10:45;;;;;;;15.48;2.58;;;8.80;99.90;;;;;;6301034;22;20011;-79
2024/01/03 09:13:10;;;;;;;13.75;2.45;;;9.00;99.90;;;;;;6299073;22;20011;-79
2024/01/03 09:15:36;;;;;;;14.48;2.33;;;8.70;99.90;;;;;;6300001;22;20019;-79
2024/01/03 09:18:01;;;;;;;16.50;2.58;;;8.80;99.90;;;;;;6300180;22;20014;-79
2024/01/03 09:20:27;;;;;;;12.70;2.28;;;8.80;99.90;;;;;;6300810;22;20357;-77
2024/01/03 09:22:53;;;;;;;13.63;3.08;;;8.80;99.90;;;;;;6302093;22;20417;-79
2024/01/03 09:25:19;;;;;;;15.60;2.10;;;9.00;99.90;;;;;;6298959;22;20132;-78
2024/01/03 09:27:44;;;;;;;12.32;2.17;;;8.80;99.90;;;;;;6301445;22;20015;-79
2024/01/03 09:30:10;;;;;;;10.52;1.95;;;8.80;99.90;;;;;;6299606;22;20086;-79
2024/01/03 09:32:36;;;;;;;13.63;2.65;;;9.10;99.90;;;;;;6302482;22;20011;-78
2024/01/03 09:35:02;;;;;;;9.73;1.80;;;9.00;99.90;;;;;;6300154;22;20003;-78
2024/01/03 09:37:31;;;;;;;14.00;2.15;;;9.00;99.90;;;;;;6300119;22;20026;-79
2024/01/03 09:39:57;;;;;;;12.40;2.17;;;9.00;99.90;;;;;;6299277;22;20015;-80
2024/01/03 09:42:23;;;;;;;13.43;2.05;;;9.00;99.90;;;;;;6299883;22;20401;-78
2024/01/03 09:44:50;;;;;;;10.38;1.90;;;9.30;99.90;;;;;;6302096;22;20471;-78
2024/01/03 09:47:16;;;;;;;10.63;2.25;;;9.10;99.90;;;;;;6302153;22;20022;-77
2024/01/03 09:49:45;;;;;;;16.70;3.38;;;9.10;99.90;;;;;;6301306;22;20015;-79
2024/01/03 09:52:12;;;;;;;13.50;2.17;;;9.10;99.90;;;;;;6274106;22;20069;-79
2024/01/03 09:54:39;;;;;;;13.95;2.15;;;9.30;99.90;;;;;;6273732;22;20053;-79
2024/01/03 09:57:07;;;;;;;11.63;2.20;;;9.00;99.90;;;;;;6299325;22;20085;-79
2024/01/03 09:59:34;;;;;;;11.23;2.47;;;9.00;99.90;;;;;;6300436;22;20020;-79
2024/01/03 10:01:59;;;;;;;8.52;1.63;;;9.00;99.90;;;;;;6273941;22;20046;-81
2024/01/03 10:04:26;;;;;;;8.90;1.70;;;9.10;99.90;;;;;;6300663;22;20011;-79
2024/01/03 10:06:57;;;;;;;10.00;1.67;;;9.00;99.90;;;;;;6299254;22;20023;-79
2024/01/03 10:09:23;;;;;;;7.10;1.42;;;9.00;99.90;;;;;;6299104;22;20019;-80
2024/01/03 10:11:53;;;;;;;;;;;9.20;99.90;;;;;;6300825;22;20019;-80
2024/01/03 10:14:24;;;;;;;11.05;1.70;;;9.20;99.90;;;;;;6301658;22;20352;-79
2024/01/03 10:16:49;;;;;;;9.00;1.65;;;9.30;99.90;;;;;;6300416;22;20078;-79
2024/01/03 10:19:15;;;;;;;12.38;2.30;;;9.40;99.90;;;;;;6300684;22;20066;-80
2024/01/03 10:21:53;;;;;;;16.98;2.53;;;9.50;99.90;;;;;;6302144;22;20061;-80
2024/01/03 10:24:23;;;;;;;12.43;2.08;;;9.50;99.90;;;;;;6301018;22;20017;-79
2024/01/03 10:26:49;;;;;;;11.98;2.08;;;9.40;99.90;;;;;;6300997;22;20007;-79
2024/01/03 10:29:17;;;;;;;9.98;2.17;;;9.50;99.90;;;;;;6302183;22;20444;-79
2024/01/03 10:31:45;;;;;;;7.22;1.52;;;9.30;99.90;;;;;;6301318;22;20019;-79
2024/01/03 10:34:15;;;;;;;10.63;1.80;;;9.40;99.90;;;;;;6300788;22;20007;-80
2024/01/03 10:36:45;;;;;;;15.35;2.30;;;9.30;99.90;;;;;;6298086;22;20088;-79
2024/01/03 10:39:18;;;;;;;12.88;2.67;;;9.20;99.90;;;;;;6299931;22;20019;-79
2024/01/03 10:41:48;;;;;;;14.10;2.00;;;9.30;99.90;;;;;;6301332;22;20011;-80
2024/01/03 10:44:18;;;;;;;17.35;2.63;;;9.20;99.90;;;;;;6273843;22;20015;-80
2024/01/03 10:46:45;;;;;;;9.80;2.10;;;9.20;99.90;;;;;;6301133;22;20015;-79
2024/01/03 10:49:11;;;;;;;11.93;2.35;;;9.30;99.90;;;;;;6272966;22;20011;-79
2024/01/03 10:51:44;;;;;;;8.50;1.67;;;9.20;99.90;;;;;;6299140;22;20015;-79
2024/01/03 10:54:11;;;;;;;10.48;1.90;;;9.20;99.90;;;;;;6298702;22;20061;-79
2024/01/03 10:56:48;;;;;;;14.05;2.08;;;9.10;99.90;;;;;;6273552;22;20015;-79
2024/01/03 10:59:15;;;;;;;7.35;1.50;;;9.20;99.90;;;;;;6299368;22;20010;-79
2024/01/03 11:01:53;;;;;;;10.25;1.77;;;9.40;99.90;;;;;;6299365;22;20148;-79
2024/01/03 11:04:21;;;;;;;12.32;1.73;;;9.50;99.90;;;;;;6298919;22;20046;-79
2024/01/03 11:06:52;;;;;;;12.50;2.50;;;9.40;99.90;;;;;;6298948;22;20462;-79
2024/01/03 11:09:19;;;;;;;11.82;2.33;;;9.60;99.90;;;;;;6298500;22;20015;-78
2024/01/03 11:11:44;;;;;;;;;;;9.70;99.90;;;;;;6298715;22;20015;-79
2024/01/03 11:14:30;;;;;;;11.80;1.75;;;9.70;99.90;;;;;;6296231;22;20019;-79
2024/01/03 11:16:55;;;;;;;12.70;2.35;;;9.80;99.90;;;;;;6272651;22;20015;-78
2024/01/03 11:19:29;;;;;;;14.20;2.47;;;9.80;99.90;;;;;;6298965;22;20133;-78
2024/01/03 11:21:55;;;;;;;14.75;2.72;;;9.80;99.90;;;;;;6298419;22;20047;-78
2024/01/03 11:24:21;;;;;;;;;;;9.80;99.90;;;;;;6299524;22;20026;-79
2024/01/03 11:26:54;;;;;;;12.52;2.30;;;9.80;99.90;;;;;;6300181;22;19977;-79
2024/01/03 11:29:35;;;;;;;14.10;2.63;;;9.80;99.90;;;;;;6297102;22;20109;-80
2024/01/03 11:32:03;;;;;;;13.73;2.20;;;9.90;99.90;;;;;;6298375;22;20412;-79
2024/01/03 11:34:46;;;;;;;16.77;2.50;;;10.10;99.90;;;;;;6301037;22;20018;-78
2024/01/03 11:37:20;;;;;;;16.38;2.63;;;10.20;99.90;;;;;;6300180;22;20021;-79
2024/01/03 11:39:50;;;;;;;15.18;2.45;;;10.20;99.90;;;;;;6300931;22;20444;-79
2024/01/03 11:42:32;;;;;;;14.85;2.45;;;10.30;99.90;;;;;;6300183;22;20018;-78
2024/01/03 11:45:12;;;;;;;16.67;2.60;;;10.50;99.90;;;;;;6299117;22;20042;-79
2024/01/03 11:47:46;;;;;;;13.25;2.08;;;10.40;99.90;;;;;;6298048;22;20070;-79
2024/01/03 11:50:14;;;;;;;13.40;2.67;;;10.50;99.90;;;;;;6297099;22;20453;-79
2024/01/03 11:52:43;;;;;;;11.02;2.35;;;10.30;99.90;;;;;;6300361;22;20030;-78
2024/01/03 11:55:10;;;;;;;12.82;2.42;;;10.30;99.90;;;;;;6297802;22;20317;-78
2024/01/03 11:57:44;;;;;;;15.13;2.42;;;10.20;99.90;;;;;;6297879;22;20057;-80
2024/01/03 12:00:13;;;;;;;14.82;2.30;;;10.00;99.90;;;;;;6298950;22;20493;-79
2024/01/03 12:02:49;;;;;;;16.67;2.75;;;10.10;99.90;;;;;;6300631;22;20015;-79
2024/01/03 12:05:15;;;;;;;12.52;2.58;;;10.10;99.90;;;;;;6301043;22;20018;-79
2024/01/03 12:07:41;;;;;;;13.55;2.53;;;10.10;99.90;;;;;;6302905;22;20018;-79
2024/01/03 12:10:10;;;;;;;18.75;3.15;;;10.10;99.90;;;;;;6299324;22;20016;-79
2024/01/03 12:12:39;;;;;;;16.08;3.00;;;10.00;99.90;;;;;;6301068;22;20501;-79
2024/01/03 12:15:05;;;;;;;14.05;2.53;;;10.00;99.90;;;;;;6301404;22;20118;-79
2024/01/03 12:17:33;;;;;;;13.45;2.22;;;10.00;99.90;;;;;;6301048;22;20015;-79
2024/01/03 12:20:16;;;;;;;14.88;2.40;;;10.00;99.90;;;;;;6302316;22;20470;-79
2024/01/03 12:22:45;;;;;;;15.85;2.60;;;10.00;99.90;;;;;;6301470;22;20015;-79
2024/01/03 12:25:26;;;;;;;13.85;2.67;;;10.00;99.90;;;;;;6300900;22;20095;-79
2024/01/03 12:27:58;;;;;;;13.48;2.58;;;10.10;99.90;;;;;;6301083;22;20076;-79
2024/01/03 12:30:24;;;;;;;11.73;2.20;;;10.00;99.90;;;;;;6302455;22;20073;-79
2024/01/03 12:32:51;;;;;;;17.98;3.28;;;10.00;99.90;;;;;;6300526;22;20015;-78
2024/01/03 12:35:16;;;;;;;13.82;3.05;;;10.00;99.90;;;;;;6300135;22;20082;-79
2024/01/03 12:37:47;;;;;;;11.43;2.25;;;9.90;99.90;;;;;;6300868;22;20042;-79
2024/01/03 12:40:17;;;;;;;14.15;2.65;;;10.00;99.90;;;;;;6299221;22;20089;-79
2024/01/03 12:42:44;;;;;;;14.45;2.63;;;10.00;99.90;;;;;;6300067;22;20313;-79
2024/01/03 12:45:10;;;;;;;14.65;2.75;;;10.00;99.90;;;;;;6274369;22;20086;-79
2024/01/03 12:47:36;;;;;;;11.27;2.33;;;10.10;99.90;;;;;;6300401;22;20039;-79
2024/01/03 12:50:02;;;;;;;13.73;2.70;;;10.10;99.90;;;;;;6302048;22;20055;-80